Terminal Aerodrome Forecast
Issued by NWS Omaha/Valley, NE

Home | Current Version | Previous Version | Graphics & Text | Print | Product List | Glossary On
Versions: 1 2 3 4 5 6 7 8 9 10 11 12 13 14 15 16 17 18 19 20 21 22 23 24 25 26 27 28 29 30 31 32 33 34 35 36 37 38 39 40 41 42 43 44 45 46
000
FTUS43 KOAX 280147 AAB
TAFOFK
TAF AMD
KOFK 280147Z 2802/2824 13006KT P6SM SCT010 OVC018
     FM280500 09008KT 6SM -SHRA BR OVC007
      TEMPO 2808/2812 15008KT 2SM TSRA BKN006CB
     FM281200 18006KT 6SM -SHRA OVC007
      TEMPO 2812/2814 5SM -TSRA BKN006CB
     FM281600 22008KT P6SM OVC025
     FM281900 25009KT P6SM SCT025 BKN040
      TEMPO 2820/2824 30008KT P6SM BKN070=

USA.gov is the U.S. government's official web portal to all federal, state and local government web resources and services.